createdAt,value
2018-02-17T00:02:06.675Z,88.63
2018-02-17T00:05:10.794Z,88.60
2018-02-17T00:08:14.123Z,88.83
2018-02-17T00:11:17.736Z,88.73
2018-02-17T00:14:21.860Z,88.69
2018-02-17T00:17:25.219Z,88.61
2018-02-17T00:20:28.591Z,88.46
2018-02-17T00:23:33.453Z,88.12
2018-02-17T00:26:38.494Z,87.95
2018-02-17T00:29:42.631Z,87.81
2018-02-17T00:32:45.996Z,87.60
2018-02-17T00:35:49.349Z,87.34
2018-02-17T00:38:52.679Z,87.15
2018-02-17T00:41:56.826Z,87.28
2018-02-17T00:45:00.243Z,87.13
2018-02-17T00:48:03.557Z,87.28
2018-02-17T00:51:09.033Z,87.33
2018-02-17T00:54:12.411Z,87.18
2018-02-17T00:57:32.975Z,86.97
2018-02-17T01:00:39.705Z,87.02
2018-02-17T01:03:43.044Z,87.04
2018-02-17T01:06:46.573Z,87.38
2018-02-17T01:09:50.718Z,87.15
2018-02-17T01:12:55.795Z,87.65
2018-02-17T01:15:59.163Z,88.10
2018-02-17T01:19:02.569Z,87.71
2018-02-17T01:22:06.664Z,87.98
2018-02-17T01:25:10.010Z,88.23
2018-02-17T01:28:13.383Z,88.62
2018-02-17T01:31:17.487Z,88.70
2018-02-17T01:34:20.930Z,88.31
2018-02-17T01:37:24.265Z,87.88
2018-02-17T01:40:27.617Z,87.90
2018-02-17T01:43:30.982Z,88.13
2018-02-17T01:46:34.320Z,87.96
2018-02-17T01:49:37.697Z,88.03
2018-02-17T01:52:41.057Z,87.71
2018-02-17T01:55:45.212Z,88.00
2018-02-17T01:58:49.354Z,88.17
2018-02-17T02:01:52.736Z,88.57
2018-02-17T02:04:57.598Z,88.20
2018-02-17T02:08:00.961Z,88.13
2018-02-17T02:11:04.305Z,88.22
2018-02-17T02:14:07.637Z,88.50
2018-02-17T02:17:11.513Z,88.31
2018-02-17T02:20:14.959Z,88.88
2018-02-17T02:23:18.468Z,88.73
2018-02-17T02:26:21.810Z,88.95
2018-02-17T02:29:26.881Z,89.19
2018-02-17T02:32:30.243Z,88.75
2018-02-17T02:35:34.473Z,89.06
2018-02-17T02:38:38.264Z,89.13
2018-02-17T02:41:43.013Z,88.82
2018-02-17T02:44:46.337Z,88.90
2018-02-17T02:47:49.685Z,88.64
2018-02-17T02:50:53.838Z,88.25
2018-02-17T02:53:57.170Z,88.19
2018-02-17T02:57:00.536Z,88.92
2018-02-17T03:00:04.763Z,89.16
2018-02-17T03:03:08.143Z,89.40
2018-02-17T03:06:13.561Z,89.56
2018-02-17T03:09:16.914Z,89.74
2018-02-17T03:12:20.249Z,89.74
2018-02-17T03:15:23.607Z,89.55
2018-02-17T03:18:26.962Z,89.78
2018-02-17T03:21:30.372Z,89.75
2018-02-17T03:24:34.483Z,90.11
2018-02-17T03:27:38.593Z,89.91
2018-02-17T03:30:41.966Z,89.81
2018-02-17T03:33:45.297Z,89.87
2018-02-17T03:36:49.393Z,89.93
2018-02-17T03:39:52.737Z,89.97
2018-02-17T03:42:56.109Z,90.35
2018-02-17T03:45:59.473Z,90.41
2018-02-17T03:49:02.808Z,90.10
2018-02-17T03:52:06.179Z,90.14
2018-02-17T03:55:09.518Z,89.97
2018-02-17T03:58:14.885Z,90.04
2018-02-17T04:01:18.217Z,90.22
2018-02-17T04:04:21.553Z,89.74
2018-02-17T04:07:24.920Z,89.77
2018-02-17T04:10:29.197Z,89.58
2018-02-17T04:13:32.541Z,90.00
2018-02-17T04:16:35.874Z,89.51
2018-02-17T04:19:39.994Z,89.39
2018-02-17T04:22:43.357Z,89.36
2018-02-17T04:25:46.709Z,89.33
2018-02-17T04:28:50.048Z,89.59
2018-02-17T04:31:53.374Z,89.40
2018-02-17T04:34:57.478Z,89.49
2018-02-17T04:38:00.800Z,89.63
2018-02-17T04:41:05.089Z,89.41
2018-02-17T04:44:10.812Z,89.53
2018-02-17T04:47:14.515Z,89.46
2018-02-17T04:50:23.510Z,89.50
2018-02-17T04:57:15.752Z,88.89
2018-02-17T05:00:19.774Z,88.88
2018-02-17T05:03:27.224Z,88.39
2018-02-17T05:06:45.465Z,88.43
2018-02-17T05:09:49.010Z,88.33
2018-02-17T05:12:52.267Z,88.10
2018-02-17T05:15:55.704Z,88.66
2018-02-17T05:23:01.134Z,88.81
2018-02-17T05:26:04.411Z,89.35
2018-02-17T05:29:10.605Z,89.13
2018-02-17T05:32:28.766Z,89.35
2018-02-17T05:35:34.828Z,89.86
2018-02-17T05:38:48.004Z,89.87
2018-02-17T05:42:01.957Z,89.92
2018-02-17T05:45:05.243Z,89.76
2018-02-17T05:48:18.705Z,89.72
2018-02-17T05:51:21.974Z,89.82
2018-02-17T05:54:26.492Z,90.11
2018-02-17T05:57:30.525Z,89.56
2018-02-17T06:00:33.798Z,90.07
2018-02-17T06:03:37.069Z,89.91
2018-02-17T06:06:40.400Z,90.11
2018-02-17T06:09:44.435Z,89.92
2018-02-17T06:12:47.706Z,89.97
2018-02-17T06:15:51.759Z,90.04
2018-02-17T06:22:23.520Z,90.08
2018-02-17T06:25:27.558Z,89.91
2018-02-17T06:28:30.830Z,90.01
2018-02-17T06:31:35.054Z,89.63
2018-02-17T06:34:39.081Z,89.31
2018-02-17T06:37:42.358Z,89.17
2018-02-17T06:40:45.896Z,90.06
2018-02-17T06:43:50.044Z,89.90
2018-02-17T06:46:54.829Z,90.10
2018-02-17T06:49:58.158Z,89.87
2018-02-17T06:53:01.432Z,89.88
2018-02-17T06:56:04.711Z,89.49
2018-02-17T06:59:08.010Z,89.62
2018-02-17T07:02:11.320Z,89.69
2018-02-17T07:05:14.562Z,89.72
2018-02-17T07:08:17.906Z,89.36
2018-02-17T07:11:21.175Z,89.35
2018-02-17T07:14:31.890Z,89.07
2018-02-17T07:17:36.753Z,89.22
2018-02-17T07:20:40.033Z,89.10
2018-02-17T07:23:43.425Z,89.63
2018-02-17T07:26:46.699Z,89.67
2018-02-17T07:29:49.985Z,89.11
2018-02-17T07:32:53.297Z,89.34
2018-02-17T07:35:56.694Z,89.26
2018-02-17T07:39:00.713Z,89.63
2018-02-17T07:42:03.994Z,89.42
2018-02-17T07:45:08.149Z,89.64
2018-02-17T07:48:11.455Z,89.66
2018-02-17T07:51:14.862Z,89.15
2018-02-17T07:54:18.185Z,89.18
2018-02-17T07:57:21.538Z,89.50
2018-02-17T08:00:24.802Z,89.63
2018-02-17T08:03:28.858Z,89.56
2018-02-17T08:06:32.125Z,89.37
2018-02-17T08:09:36.168Z,88.99
2018-02-17T08:12:39.465Z,88.74
2018-02-17T08:15:42.726Z,88.84
2018-02-17T08:18:47.373Z,89.07
2018-02-17T08:21:50.870Z,89.24
2018-02-17T08:25:14.658Z,88.62
2018-02-17T08:28:20.918Z,89.09
2018-02-17T08:31:24.900Z,89.03
2018-02-17T08:34:28.403Z,88.60
2018-02-17T08:37:31.947Z,87.84
2018-02-17T08:40:35.269Z,87.91
2018-02-17T08:43:38.543Z,86.85
2018-02-17T08:46:41.824Z,86.75
2018-02-17T08:49:45.844Z,86.49
2018-02-17T08:52:49.150Z,85.19
2018-02-17T08:55:52.453Z,85.44
2018-02-17T08:58:55.723Z,85.00
2018-02-17T09:01:59.757Z,84.20
2018-02-17T09:05:03.045Z,84.42
2018-02-17T09:08:06.350Z,83.54
2018-02-17T09:11:09.648Z,84.33
2018-02-17T09:14:12.923Z,83.87
2018-02-17T09:17:16.495Z,84.17
2018-02-17T09:20:19.869Z,83.39
2018-02-17T09:23:23.155Z,82.73
2018-02-17T09:26:26.457Z,82.99
2018-02-17T09:29:29.730Z,82.30
2018-02-17T09:32:33.757Z,82.75
2018-02-17T09:35:37.081Z,82.49
2018-02-17T09:38:40.353Z,81.84
2018-02-17T09:41:43.613Z,81.94
2018-02-17T09:44:46.960Z,82.66
2018-02-17T09:47:50.537Z,82.67
2018-02-17T09:50:54.801Z,82.86
2018-02-17T09:53:59.391Z,83.37
2018-02-17T09:57:03.000Z,83.99
2018-02-17T10:00:06.602Z,84.67
2018-02-17T10:03:10.173Z,84.88
2018-02-17T10:06:14.686Z,85.26
2018-02-17T10:09:17.962Z,85.14
2018-02-17T10:12:21.235Z,85.18
2018-02-17T10:15:24.546Z,84.94
2018-02-17T10:18:28.601Z,84.86
2018-02-17T10:21:32.670Z,84.88
2018-02-17T10:24:35.975Z,84.44
2018-02-17T10:27:39.274Z,84.95
2018-02-17T10:30:42.549Z,85.30
2018-02-17T10:33:46.789Z,84.64
2018-02-17T10:36:50.105Z,84.51
2018-02-17T10:39:53.375Z,85.93
2018-02-17T10:42:57.693Z,85.52
2018-02-17T10:46:00.985Z,85.43
2018-02-17T10:49:04.574Z,85.45
2018-02-17T10:52:08.627Z,85.52
2018-02-17T10:55:12.015Z,85.06
2018-02-17T10:58:15.309Z,84.02
2018-02-17T11:01:18.600Z,83.08
2018-02-17T11:04:22.221Z,83.00
2018-02-17T11:07:25.501Z,84.05
2018-02-17T11:10:29.644Z,84.84
2018-02-17T11:13:33.746Z,85.41
2018-02-17T11:16:37.173Z,85.47
2018-02-17T11:19:40.445Z,85.25
2018-02-17T11:22:43.765Z,85.01
2018-02-17T11:25:47.041Z,84.88
2018-02-17T11:28:50.446Z,84.30
2018-02-17T11:31:53.731Z,84.38
2018-02-17T11:34:59.215Z,84.98
2018-02-17T11:38:02.500Z,84.79
2018-02-17T11:41:05.777Z,84.77
2018-02-17T11:44:09.200Z,84.88
2018-02-17T11:47:12.702Z,84.29
2018-02-17T11:50:16.275Z,84.29
2018-02-17T11:53:19.811Z,84.87
2018-02-17T11:56:23.106Z,84.67
2018-02-17T11:59:27.262Z,84.43
2018-02-17T12:02:30.520Z,84.58
2018-02-17T12:05:33.854Z,85.18
2018-02-17T12:08:37.133Z,85.28
2018-02-17T12:11:40.400Z,85.22
2018-02-17T12:14:43.755Z,84.75
2018-02-17T12:17:48.020Z,84.98
2018-02-17T12:20:51.302Z,84.35
2018-02-17T12:23:55.342Z,84.02
2018-02-17T12:26:58.641Z,84.02
2018-02-17T12:30:02.028Z,84.23
2018-02-17T12:33:05.315Z,85.17
2018-02-17T12:36:09.440Z,85.64
2018-02-17T12:39:13.534Z,85.50
2018-02-17T12:42:17.600Z,85.45
2018-02-17T12:45:20.879Z,85.07
2018-02-17T12:48:24.272Z,84.73
2018-02-17T12:51:30.124Z,84.57
2018-02-17T12:54:34.239Z,84.00
2018-02-17T12:57:37.460Z,85.31
2018-02-17T13:00:40.731Z,86.15
2018-02-17T13:03:44.780Z,84.98
2018-02-17T13:06:48.050Z,84.53
2018-02-17T13:09:52.094Z,84.30
2018-02-17T13:12:55.378Z,84.42
2018-02-17T13:15:59.327Z,83.86
2018-02-17T13:19:02.626Z,83.38
2018-02-17T13:22:05.895Z,88.61
2018-02-17T13:25:09.187Z,85.25
2018-02-17T13:28:25.168Z,87.67
2018-02-17T13:31:28.458Z,87.86
2018-02-17T13:34:31.887Z,85.06
2018-02-17T13:37:35.168Z,83.81
2018-02-17T13:40:38.431Z,83.70
2018-02-17T13:43:41.719Z,82.73
2018-02-17T13:46:45.013Z,83.07
2018-02-17T13:49:48.365Z,82.24
2018-02-17T13:52:51.755Z,81.41
2018-02-17T13:55:55.782Z,80.90
2018-02-17T13:58:59.050Z,81.40
2018-02-17T14:02:03.391Z,84.68
2018-02-17T14:05:06.674Z,85.83
2018-02-17T14:08:10.734Z,85.71
2018-02-17T14:11:14.001Z,84.24
2018-02-17T14:14:18.035Z,82.95
2018-02-17T14:17:21.312Z,82.39
2018-02-17T14:20:24.887Z,83.26
2018-02-17T14:23:28.350Z,83.97
2018-02-17T14:26:33.016Z,84.35
2018-02-17T14:29:36.282Z,84.40
2018-02-17T14:32:39.622Z,84.70
2018-02-17T14:35:42.907Z,83.33
2018-02-17T14:38:46.946Z,84.08
2018-02-17T14:41:51.226Z,83.40
2018-02-17T14:44:54.495Z,84.71
2018-02-17T14:47:58.064Z,83.40
2018-02-17T14:51:02.090Z,83.83
2018-02-17T14:54:06.474Z,83.65
2018-02-17T14:57:09.748Z,83.33
2018-02-17T15:00:13.147Z,83.22
2018-02-17T15:03:16.460Z,83.04
2018-02-17T15:06:19.908Z,82.67
2018-02-17T15:09:23.280Z,83.43
2018-02-17T15:12:27.424Z,83.31
2018-02-17T15:15:31.458Z,83.36
2018-02-17T15:18:34.762Z,83.59
2018-02-17T15:21:38.053Z,84.16
2018-02-17T15:24:41.316Z,84.59
2018-02-17T15:27:45.350Z,84.38
2018-02-17T15:30:50.284Z,85.08
2018-02-17T15:33:53.557Z,84.96
2018-02-17T15:36:56.821Z,84.64
2018-02-17T15:40:00.128Z,85.38
2018-02-17T15:43:03.503Z,85.13
2018-02-17T15:46:06.993Z,85.54
2018-02-17T15:49:10.338Z,85.15
2018-02-17T15:55:40.463Z,86.03
2018-02-17T15:58:43.728Z,85.76
2018-02-17T16:01:46.985Z,85.47
2018-02-17T16:04:50.295Z,85.80
2018-02-17T16:07:53.539Z,85.62
2018-02-17T16:10:57.221Z,85.34
2018-02-17T16:14:00.481Z,86.01
2018-02-17T16:17:03.754Z,85.87
2018-02-17T16:20:07.033Z,85.99
2018-02-17T16:23:10.289Z,86.39
2018-02-17T16:26:14.499Z,86.43
2018-02-17T16:29:17.815Z,86.01
2018-02-17T16:32:21.863Z,86.83
2018-02-17T16:35:25.121Z,86.57
2018-02-17T16:38:29.151Z,86.58
2018-02-17T16:41:32.444Z,86.13
2018-02-17T16:44:36.786Z,86.17
2018-02-17T16:47:40.099Z,86.21
2018-02-17T16:50:44.102Z,86.01
2018-02-17T16:53:47.385Z,85.66
2018-02-17T16:56:51.638Z,85.52
2018-02-17T16:59:54.912Z,85.27
2018-02-17T17:02:58.178Z,85.35
2018-02-17T17:06:02.225Z,84.92
2018-02-17T17:09:05.577Z,84.90
2018-02-17T17:12:09.669Z,84.96
2018-02-17T17:15:13.043Z,84.46
2018-02-17T17:18:16.309Z,84.21
2018-02-17T17:21:20.341Z,84.35
2018-02-17T17:24:24.381Z,84.68
2018-02-17T17:27:27.649Z,84.70
2018-02-17T17:30:51.200Z,84.61
2018-02-17T17:33:57.623Z,84.54
2018-02-17T17:37:00.886Z,84.23
2018-02-17T17:40:04.433Z,84.65
2018-02-17T17:43:08.596Z,84.56
2018-02-17T17:46:12.639Z,84.79
2018-02-17T17:49:15.908Z,84.81
2018-02-17T17:52:19.946Z,84.64
2018-02-17T17:55:23.257Z,84.24
2018-02-17T17:58:26.513Z,84.40
2018-02-17T18:01:30.545Z,84.26
2018-02-17T18:04:33.819Z,84.11
2018-02-17T18:07:37.257Z,84.08
2018-02-17T18:10:40.526Z,84.03
2018-02-17T18:13:44.576Z,83.88
2018-02-17T18:16:47.879Z,84.02
2018-02-17T18:19:51.155Z,83.88
2018-02-17T18:22:54.436Z,83.58
2018-02-17T18:25:58.489Z,83.57
2018-02-17T18:29:01.766Z,83.64
2018-02-17T18:32:05.025Z,83.60
2018-02-17T18:35:08.347Z,83.93
2018-02-17T18:38:12.402Z,83.67
2018-02-17T18:41:16.481Z,83.81
2018-02-17T18:44:19.764Z,83.62
2018-02-17T18:47:23.809Z,84.00
2018-02-17T18:50:27.112Z,84.17
2018-02-17T18:53:30.370Z,84.20
2018-02-17T18:56:34.410Z,84.29
2018-02-17T18:59:37.697Z,84.06
2018-02-17T19:02:41.477Z,83.83
2018-02-17T19:05:44.737Z,83.73
2018-02-17T19:08:48.053Z,83.97
2018-02-17T19:11:51.343Z,83.95
2018-02-17T19:14:55.214Z,85.16
2018-02-17T19:17:59.249Z,85.91
2018-02-17T19:21:02.529Z,86.75
2018-02-17T19:24:05.824Z,86.85
2018-02-17T19:27:09.778Z,86.88
2018-02-17T19:30:13.069Z,86.86
2018-02-17T19:33:16.528Z,87.01
2018-02-17T19:36:19.867Z,87.12
2018-02-17T19:39:23.139Z,87.04
2018-02-17T19:42:26.484Z,87.29
2018-02-17T19:45:29.839Z,87.01
2018-02-17T19:48:33.156Z,86.84
2018-02-17T19:51:36.487Z,87.46
2018-02-17T19:54:39.765Z,86.91
2018-02-17T19:57:43.429Z,87.12
2018-02-17T20:00:46.727Z,87.46
2018-02-17T20:03:59.068Z,87.52
2018-02-17T20:07:02.873Z,87.49
2018-02-17T20:10:06.232Z,87.46
2018-02-17T20:13:10.694Z,87.58
2018-02-17T20:16:14.631Z,87.58
2018-02-17T20:19:17.953Z,87.55
2018-02-17T20:22:22.100Z,87.68
2018-02-17T20:25:25.425Z,87.79
2018-02-17T20:28:28.813Z,87.58
2018-02-17T20:31:32.226Z,87.71
2018-02-17T20:34:35.533Z,87.64
2018-02-17T20:37:38.817Z,87.78
2018-02-17T20:40:42.241Z,87.83
2018-02-17T20:43:45.532Z,87.60
2018-02-17T20:46:48.878Z,87.79
2018-02-17T20:49:53.022Z,87.71
2018-02-17T20:52:56.318Z,87.52
2018-02-17T20:55:59.636Z,86.92
2018-02-17T20:59:02.926Z,86.70
2018-02-17T21:02:06.284Z,86.25
2018-02-17T21:05:09.669Z,86.14
2018-02-17T21:08:13.023Z,86.10
2018-02-17T21:11:16.339Z,86.39
2018-02-17T21:14:19.704Z,86.70
2018-02-17T21:17:23.035Z,86.57
2018-02-17T21:20:26.331Z,86.32
2018-02-17T21:23:29.622Z,86.14
2018-02-17T21:26:33.627Z,86.48
2018-02-17T21:29:37.989Z,86.76
2018-02-17T21:32:41.348Z,87.12
2018-02-17T21:35:44.642Z,87.27
2018-02-17T21:38:47.925Z,87.59
2018-02-17T21:41:51.251Z,87.74
2018-02-17T21:44:54.520Z,87.45
2018-02-17T21:47:57.813Z,87.79
2018-02-17T21:51:01.857Z,87.89
2018-02-17T21:54:05.174Z,87.83
2018-02-17T21:57:08.457Z,87.24
2018-02-17T22:00:11.833Z,87.32
2018-02-17T22:03:15.881Z,87.51
2018-02-17T22:06:19.182Z,87.75
2018-02-17T22:09:22.470Z,87.52
2018-02-17T22:12:25.759Z,87.63
2018-02-17T22:15:29.071Z,87.74
2018-02-17T22:18:32.493Z,87.38
2018-02-17T22:21:35.798Z,87.59
2018-02-17T22:24:39.068Z,87.66
2018-02-17T22:27:42.462Z,87.38
2018-02-17T22:30:45.741Z,87.52
2018-02-17T22:33:49.335Z,87.52
2018-02-17T22:36:53.381Z,87.47
2018-02-17T22:39:56.907Z,87.68
2018-02-17T22:43:01.806Z,87.89
2018-02-17T22:46:05.853Z,87.72
2018-02-17T22:49:09.143Z,87.64
2018-02-17T22:52:12.430Z,87.71
2018-02-17T22:55:15.698Z,87.65
2018-02-17T22:58:21.056Z,87.67
2018-02-17T23:01:25.129Z,87.72
2018-02-17T23:04:28.453Z,88.01
2018-02-17T23:07:31.747Z,87.92
2018-02-17T23:10:35.023Z,87.92
2018-02-17T23:13:38.445Z,87.78
2018-02-17T23:16:43.243Z,87.79
2018-02-17T23:19:46.552Z,87.76
2018-02-17T23:22:49.820Z,87.83
2018-02-17T23:25:53.090Z,87.76
2018-02-17T23:28:57.131Z,87.82
2018-02-17T23:32:00.430Z,87.73
2018-02-17T23:35:03.718Z,87.54
2018-02-17T23:38:07.010Z,87.69
2018-02-17T23:41:10.285Z,87.48
2018-02-17T23:44:14.909Z,87.61
2018-02-17T23:47:18.261Z,87.64
2018-02-17T23:50:23.990Z,87.54
2018-02-17T23:53:27.291Z,87.58
2018-02-17T23:56:30.625Z,87.58
2018-02-17T23:59:33.957Z,87.54
